createdAt,value
2022-12-20T00:00:23.875Z,33.47
2022-12-20T00:02:54.715Z,33.44
2022-12-20T00:05:25.139Z,33.19
2022-12-20T00:07:55.598Z,33.35
2022-12-20T00:10:25.560Z,33.38
2022-12-20T00:12:56.117Z,33.76
2022-12-20T00:15:28.592Z,33.24
2022-12-20T00:17:58.529Z,33.14
2022-12-20T00:20:38.562Z,33.25
2022-12-20T00:23:09.462Z,33.34
2022-12-20T00:25:41.282Z,33.43
2022-12-20T00:28:12.232Z,33.74
2022-12-20T00:30:44.762Z,33.44
2022-12-20T00:33:14.657Z,33.50
2022-12-20T00:35:45.518Z,33.25
2022-12-20T00:38:15.869Z,33.46
2022-12-20T00:40:46.417Z,33.44
2022-12-20T00:43:16.469Z,33.57
2022-12-20T00:45:49.070Z,33.50
2022-12-20T00:48:19.475Z,33.17
2022-12-20T00:50:49.760Z,33.39
2022-12-20T00:53:26.041Z,33.41
2022-12-20T00:55:56.650Z,33.40
2022-12-20T00:58:27.544Z,33.70
2022-12-20T01:00:59.830Z,33.48
2022-12-20T01:03:30.904Z,33.51
2022-12-20T01:06:03.993Z,33.21
2022-12-20T01:08:35.280Z,33.49
2022-12-20T01:11:08.640Z,33.28
2022-12-20T01:13:42.728Z,33.65
2022-12-20T01:16:18.107Z,33.78
2022-12-20T01:18:49.868Z,33.49
2022-12-20T01:21:22.441Z,33.53
2022-12-20T01:23:53.428Z,33.84
2022-12-20T01:26:27.045Z,33.68
2022-12-20T01:28:59.494Z,33.44
2022-12-20T01:31:33.827Z,33.48
2022-12-20T01:34:05.247Z,33.88
2022-12-20T01:36:39.836Z,33.47
2022-12-20T01:39:14.159Z,33.79
2022-12-20T01:41:46.862Z,33.79
2022-12-20T01:45:00.704Z,33.46
2022-12-20T01:47:38.165Z,33.51
2022-12-20T01:50:11.286Z,33.78
2022-12-20T01:52:47.255Z,33.95
2022-12-20T01:55:24.819Z,33.81
2022-12-20T01:58:02.083Z,33.89
2022-12-20T02:00:32.790Z,33.94
2022-12-20T02:03:11.142Z,33.57
2022-12-20T02:05:45.618Z,33.70
2022-12-20T02:08:21.218Z,34.04
2022-12-20T02:11:18.304Z,33.90
2022-12-20T02:14:07.101Z,33.67
2022-12-20T02:16:46.681Z,34.05
2022-12-20T02:19:53.890Z,33.89
2022-12-20T02:22:37.787Z,33.90
2022-12-20T02:25:51.004Z,33.88
2022-12-20T02:28:52.434Z,33.80
2022-12-20T02:31:34.161Z,33.89
2022-12-20T02:34:06.209Z,33.71
2022-12-20T02:36:36.950Z,34.15
2022-12-20T02:39:07.474Z,33.91
2022-12-20T02:41:45.737Z,33.79
2022-12-20T02:44:38.447Z,33.95
2022-12-20T02:47:17.184Z,33.91
2022-12-20T02:49:50.508Z,33.81
2022-12-20T02:52:26.908Z,33.80
2022-12-20T02:54:58.403Z,33.83
2022-12-20T02:57:40.857Z,33.62
2022-12-20T03:00:16.992Z,34.03
2022-12-20T03:03:08.535Z,33.99
2022-12-20T03:05:47.752Z,33.82
2022-12-20T03:08:18.852Z,33.99
2022-12-20T03:10:50.210Z,34.06
2022-12-20T03:13:20.377Z,34.34
2022-12-20T03:15:50.602Z,33.82
2022-12-20T03:18:23.064Z,34.09
2022-12-20T03:20:54.055Z,33.70
2022-12-20T03:23:24.581Z,34.26
2022-12-20T03:25:55.336Z,33.60
2022-12-20T03:28:25.184Z,33.99
2022-12-20T03:30:55.943Z,33.84
2022-12-20T03:33:28.434Z,33.74
2022-12-20T03:35:58.999Z,34.09
2022-12-20T03:38:30.203Z,33.99
2022-12-20T03:41:00.476Z,34.12
2022-12-20T03:43:30.914Z,34.26
2022-12-20T03:46:01.441Z,33.81
2022-12-20T03:48:36.686Z,34.35
2022-12-20T03:51:06.665Z,34.44
2022-12-20T03:53:37.400Z,34.26
2022-12-20T03:56:08.190Z,34.32
2022-12-20T03:58:39.888Z,34.09
2022-12-20T04:01:25.511Z,34.08
2022-12-20T04:03:59.479Z,34.31
2022-12-20T04:06:30.352Z,34.54
2022-12-20T04:09:00.463Z,34.12
2022-12-20T04:11:30.898Z,34.31
2022-12-20T04:14:00.825Z,34.17
2022-12-20T04:16:32.076Z,34.09
2022-12-20T04:19:04.440Z,34.32
2022-12-20T04:21:37.216Z,34.45
2022-12-20T04:24:09.187Z,34.58
2022-12-20T04:26:39.952Z,34.54
2022-12-20T04:29:10.785Z,34.38
2022-12-20T04:31:40.886Z,34.18
2022-12-20T04:34:12.961Z,34.17
2022-12-20T04:36:42.630Z,34.19
2022-12-20T04:39:13.513Z,34.05
2022-12-20T04:41:43.349Z,34.35
2022-12-20T04:44:13.855Z,34.59
2022-12-20T04:46:44.144Z,34.57
2022-12-20T04:49:16.174Z,34.43
2022-12-20T04:51:46.117Z,34.49
2022-12-20T04:54:15.130Z,34.54
2022-12-20T04:56:45.785Z,34.73
2022-12-20T04:59:15.757Z,34.33
2022-12-20T05:01:46.579Z,34.86
2022-12-20T05:04:19.429Z,34.72
2022-12-20T05:06:49.558Z,34.65
2022-12-20T05:09:19.770Z,34.55
2022-12-20T05:11:50.552Z,35.07
2022-12-20T05:14:20.580Z,35.10
2022-12-20T05:16:51.226Z,35.16
2022-12-20T05:19:23.097Z,35.15
2022-12-20T05:22:10.109Z,34.85
2022-12-20T05:25:00.425Z,34.86
2022-12-20T05:27:31.388Z,34.85
2022-12-20T05:30:01.546Z,34.67
2022-12-20T05:32:31.797Z,35.00
2022-12-20T05:35:04.429Z,34.78
2022-12-20T05:37:34.654Z,34.82
2022-12-20T05:40:05.667Z,35.33
2022-12-20T05:42:36.338Z,35.15
2022-12-20T05:45:07.560Z,35.19
2022-12-20T05:47:39.347Z,35.09
2022-12-20T05:50:18.932Z,35.06
2022-12-20T05:52:49.693Z,35.31
2022-12-20T05:55:20.544Z,34.91
2022-12-20T05:57:51.051Z,35.40
2022-12-20T06:00:21.736Z,35.12
2022-12-20T06:02:52.535Z,34.96
2022-12-20T06:05:25.249Z,35.21
2022-12-20T06:07:56.490Z,35.16
2022-12-20T06:10:27.265Z,35.36
2022-12-20T06:12:57.722Z,35.56
2022-12-20T06:15:27.838Z,35.41
2022-12-20T06:17:58.492Z,35.61
2022-12-20T06:20:31.669Z,35.36
2022-12-20T06:23:02.099Z,35.77
2022-12-20T06:25:33.480Z,35.20
2022-12-20T06:28:04.323Z,35.49
2022-12-20T06:30:34.485Z,35.80
2022-12-20T06:33:05.926Z,35.39
2022-12-20T06:35:37.948Z,35.35
2022-12-20T06:38:08.508Z,36.15
2022-12-20T06:40:39.018Z,36.05
2022-12-20T06:43:12.711Z,36.15
2022-12-20T06:45:43.389Z,36.44
2022-12-20T06:48:13.815Z,36.52
2022-12-20T06:50:50.687Z,36.71
2022-12-20T06:53:24.296Z,36.70
2022-12-20T06:55:55.087Z,36.78
2022-12-20T06:58:25.330Z,36.80
2022-12-20T07:00:56.914Z,36.70
2022-12-20T07:03:27.468Z,36.73
2022-12-20T07:06:00.258Z,36.93
2022-12-20T07:08:31.549Z,36.70
2022-12-20T07:11:11.235Z,36.91
2022-12-20T07:13:41.947Z,36.74
2022-12-20T07:16:11.885Z,36.78
2022-12-20T07:18:42.418Z,36.82
2022-12-20T07:21:17.656Z,36.52
2022-12-20T07:23:48.790Z,36.54
2022-12-20T07:26:19.285Z,36.45
2022-12-20T07:28:49.928Z,36.56
2022-12-20T07:31:20.869Z,36.57
2022-12-20T07:33:51.062Z,36.38
2022-12-20T07:36:24.027Z,36.25
2022-12-20T07:38:55.463Z,36.06
2022-12-20T07:41:26.423Z,36.53
2022-12-20T07:43:56.316Z,36.33
2022-12-20T07:46:26.133Z,36.43
2022-12-20T07:48:57.346Z,36.21
2022-12-20T07:51:36.644Z,36.18
2022-12-20T07:54:13.830Z,35.92
2022-12-20T07:56:49.668Z,36.24
2022-12-20T07:59:26.072Z,35.69
2022-12-20T08:02:02.369Z,35.62
2022-12-20T08:04:36.432Z,35.74
2022-12-20T08:07:11.033Z,35.85
2022-12-20T08:09:47.354Z,35.48
2022-12-20T08:12:22.076Z,35.23
2022-12-20T08:14:56.546Z,35.79
2022-12-20T08:17:27.579Z,36.24
2022-12-20T08:19:58.308Z,35.73
2022-12-20T08:22:31.402Z,36.25
2022-12-20T08:25:02.184Z,35.71
2022-12-20T08:27:34.389Z,35.83
2022-12-20T08:30:04.432Z,36.19
2022-12-20T08:32:34.923Z,35.88
2022-12-20T08:35:05.500Z,36.05
2022-12-20T08:37:38.598Z,35.99
2022-12-20T08:40:10.749Z,36.05
2022-12-20T08:42:41.328Z,35.32
2022-12-20T08:45:12.973Z,35.11
2022-12-20T08:47:43.848Z,34.74
2022-12-20T08:50:15.704Z,33.79
2022-12-20T08:52:49.993Z,33.46
2022-12-20T08:55:26.136Z,33.01
2022-12-20T08:57:58.419Z,33.51
2022-12-20T09:00:31.471Z,32.69
2022-12-20T09:03:02.081Z,33.22
2022-12-20T09:05:36.233Z,32.59
2022-12-20T09:08:07.974Z,32.56
2022-12-20T09:10:37.955Z,32.99
2022-12-20T09:13:08.193Z,32.41
2022-12-20T09:15:39.168Z,32.58
2022-12-20T09:18:09.569Z,32.31
2022-12-20T09:20:45.592Z,32.54
2022-12-20T09:23:17.853Z,32.63
2022-12-20T09:25:53.561Z,33.05
2022-12-20T09:28:24.521Z,32.97
2022-12-20T09:30:54.665Z,32.92
2022-12-20T09:33:24.928Z,33.23
2022-12-20T09:35:54.471Z,33.23
2022-12-20T09:38:26.847Z,33.63
2022-12-20T09:41:01.247Z,33.04
2022-12-20T09:43:31.806Z,33.01
2022-12-20T09:46:05.553Z,32.37
2022-12-20T09:48:40.540Z,32.94
2022-12-20T09:51:28.383Z,32.82
2022-12-20T09:54:15.540Z,32.26
2022-12-20T09:56:53.555Z,32.49
2022-12-20T09:59:24.560Z,32.32
2022-12-20T10:01:55.145Z,33.04
2022-12-20T10:04:29.405Z,32.79
2022-12-20T10:07:25.206Z,32.83
2022-12-20T10:10:39.110Z,33.07
2022-12-20T10:13:24.514Z,33.10
2022-12-20T10:16:02.687Z,32.92
2022-12-20T10:18:56.220Z,33.43
2022-12-20T10:21:43.875Z,33.28
2022-12-20T10:24:21.337Z,33.66
2022-12-20T10:26:55.388Z,33.44
2022-12-20T10:29:25.907Z,33.75
2022-12-20T10:32:03.106Z,33.77
2022-12-20T10:34:38.081Z,33.60
2022-12-20T10:37:18.783Z,33.60
2022-12-20T10:39:53.184Z,34.12
2022-12-20T10:42:39.405Z,34.16
2022-12-20T10:45:36.436Z,33.90
2022-12-20T10:48:09.722Z,34.42
2022-12-20T10:50:40.051Z,34.29
2022-12-20T10:53:25.924Z,34.12
2022-12-20T10:55:57.337Z,34.49
2022-12-20T10:58:38.358Z,34.21
2022-12-20T11:01:16.390Z,34.71
2022-12-20T11:03:59.347Z,34.42
2022-12-20T11:06:43.849Z,34.55
2022-12-20T11:09:29.450Z,34.68
2022-12-20T11:12:07.426Z,34.84
2022-12-20T11:14:41.025Z,34.78
2022-12-20T11:17:31.016Z,34.75
2022-12-20T11:20:27.707Z,35.27
2022-12-20T11:23:19.696Z,35.15
2022-12-20T11:26:15.718Z,35.40
2022-12-20T11:29:09.433Z,35.10
2022-12-20T11:31:59.571Z,35.42
2022-12-20T11:34:47.122Z,35.78
2022-12-20T11:37:27.004Z,35.50
2022-12-20T11:40:19.198Z,35.71
2022-12-20T11:43:15.014Z,35.50
2022-12-20T11:46:00.334Z,35.79
2022-12-20T11:48:54.066Z,35.82
2022-12-20T11:51:30.357Z,35.56
2022-12-20T11:54:13.939Z,36.28
2022-12-20T11:56:47.508Z,36.15
2022-12-20T11:59:31.360Z,36.24
2022-12-20T12:02:12.830Z,36.38
2022-12-20T12:04:51.171Z,36.11
2022-12-20T12:07:26.037Z,36.38
2022-12-20T12:10:03.154Z,36.03
2022-12-20T12:12:39.887Z,36.26
2022-12-20T12:15:35.599Z,36.32
2022-12-20T12:18:20.351Z,36.68
2022-12-20T12:21:08.487Z,36.39
2022-12-20T12:23:53.357Z,36.61
2022-12-20T12:26:28.061Z,36.88
2022-12-20T12:29:03.178Z,36.82
2022-12-20T12:31:46.263Z,36.90
2022-12-20T12:34:50.264Z,37.16
2022-12-20T12:38:06.031Z,36.80
2022-12-20T12:41:33.024Z,36.93
2022-12-20T12:44:33.063Z,37.04
2022-12-20T12:47:19.793Z,37.11
2022-12-20T12:49:55.053Z,37.16
2022-12-20T12:52:46.623Z,37.38
2022-12-20T12:55:45.797Z,37.40
2022-12-20T12:58:34.609Z,37.45
2022-12-20T13:01:09.466Z,37.30
2022-12-20T13:03:46.438Z,37.58
2022-12-20T13:06:59.892Z,37.54
2022-12-20T13:09:43.392Z,37.56
2022-12-20T13:13:02.436Z,37.68
2022-12-20T13:16:14.403Z,37.91
2022-12-20T13:19:20.801Z,38.13
2022-12-20T13:21:57.755Z,37.72
2022-12-20T13:24:54.066Z,38.07
2022-12-20T13:27:39.683Z,38.16
2022-12-20T13:30:33.777Z,38.19
2022-12-20T13:33:25.122Z,38.29
2022-12-20T13:36:22.229Z,38.43
2022-12-20T13:38:59.575Z,38.58
2022-12-20T13:41:40.311Z,38.45
2022-12-20T13:44:42.435Z,38.62
2022-12-20T13:47:37.322Z,38.66
2022-12-20T13:50:39.148Z,39.02
2022-12-20T13:53:19.676Z,38.80
2022-12-20T13:55:50.609Z,39.10
2022-12-20T13:58:25.120Z,38.90
2022-12-20T14:01:05.904Z,39.11
2022-12-20T14:03:48.525Z,39.18
2022-12-20T14:06:26.842Z,39.31
2022-12-20T14:08:57.523Z,39.16
2022-12-20T14:11:30.516Z,39.35
2022-12-20T14:14:03.160Z,39.43
2022-12-20T14:16:35.817Z,39.52
2022-12-20T14:19:17.022Z,39.51
2022-12-20T14:21:50.228Z,39.60
2022-12-20T14:24:23.816Z,39.61
2022-12-20T14:26:56.063Z,39.61
2022-12-20T14:29:32.809Z,39.73
2022-12-20T14:32:02.726Z,39.88
2022-12-20T14:34:41.726Z,39.94
2022-12-20T14:37:32.327Z,39.75
2022-12-20T14:40:17.844Z,39.78
2022-12-20T14:42:48.387Z,39.91
2022-12-20T14:45:29.330Z,40.18
2022-12-20T14:48:16.955Z,39.94
2022-12-20T14:50:56.207Z,39.74
2022-12-20T14:53:30.121Z,40.33
2022-12-20T14:56:00.759Z,40.07
2022-12-20T14:58:34.208Z,40.03
2022-12-20T15:01:21.426Z,39.89
2022-12-20T15:03:56.984Z,40.19
2022-12-20T15:06:48.573Z,40.25
2022-12-20T15:09:19.381Z,39.94
2022-12-20T15:11:51.004Z,40.34
2022-12-20T15:14:38.622Z,40.26
2022-12-20T15:17:16.432Z,40.00
2022-12-20T15:19:47.155Z,40.18
2022-12-20T15:22:22.657Z,40.24
2022-12-20T15:24:52.961Z,40.33
2022-12-20T15:27:24.963Z,40.31
2022-12-20T15:29:54.714Z,40.32
2022-12-20T15:32:31.736Z,40.37
2022-12-20T15:35:02.409Z,40.27
2022-12-20T15:37:34.018Z,40.38
2022-12-20T15:40:04.059Z,40.29
2022-12-20T15:42:34.196Z,40.56
2022-12-20T15:45:05.183Z,40.41
2022-12-20T15:47:35.174Z,40.45
2022-12-20T15:50:05.787Z,40.54
2022-12-20T15:52:37.893Z,40.56
2022-12-20T15:55:08.698Z,40.57
2022-12-20T15:57:39.020Z,40.59
2022-12-20T16:00:12.008Z,40.61
2022-12-20T16:02:42.254Z,40.55
2022-12-20T16:05:16.002Z,40.73
2022-12-20T16:07:48.332Z,40.70
2022-12-20T16:10:18.876Z,40.62
2022-12-20T16:12:49.188Z,40.76
2022-12-20T16:15:26.381Z,40.64
2022-12-20T16:17:56.367Z,40.92
2022-12-20T16:20:27.962Z,40.90
2022-12-20T16:23:00.137Z,40.88
2022-12-20T16:25:35.719Z,41.09
2022-12-20T16:28:06.859Z,41.02
2022-12-20T16:30:37.317Z,40.93
2022-12-20T16:33:07.296Z,40.95
2022-12-20T16:35:39.277Z,41.05
2022-12-20T16:38:13.064Z,40.98
2022-12-20T16:40:43.420Z,41.05
2022-12-20T16:43:18.979Z,41.16
2022-12-20T16:45:49.691Z,41.12
2022-12-20T16:48:19.407Z,41.36
2022-12-20T16:50:49.580Z,41.17
2022-12-20T16:53:22.149Z,41.22
2022-12-20T16:55:52.100Z,41.23
2022-12-20T16:58:23.737Z,41.26
2022-12-20T17:00:59.074Z,41.04
2022-12-20T17:03:29.241Z,41.26
2022-12-20T17:05:59.458Z,41.46
2022-12-20T17:11:22.267Z,41.34
2022-12-20T17:13:54.304Z,41.45
2022-12-20T17:16:25.279Z,41.33
2022-12-20T17:18:58.541Z,41.32
2022-12-20T17:24:28.639Z,41.57
2022-12-20T17:26:59.083Z,41.61
2022-12-20T17:29:29.139Z,41.42
2022-12-20T17:31:59.264Z,41.51
2022-12-20T17:34:31.788Z,41.38
2022-12-20T17:37:02.260Z,41.33
2022-12-20T17:39:33.558Z,41.47
2022-12-20T17:42:03.706Z,41.35
2022-12-20T17:44:34.303Z,41.41
2022-12-20T17:47:05.523Z,41.64
2022-12-20T17:49:36.025Z,41.66
2022-12-20T17:52:06.619Z,41.71
2022-12-20T17:54:40.489Z,41.57
2022-12-20T17:57:17.034Z,41.74
2022-12-20T17:59:48.018Z,41.53
2022-12-20T18:02:24.820Z,41.96
2022-12-20T18:04:55.764Z,41.71
2022-12-20T18:07:26.630Z,41.90
2022-12-20T18:09:59.514Z,42.05
2022-12-20T18:12:34.108Z,41.82
2022-12-20T18:15:12.427Z,41.75
2022-12-20T18:17:42.897Z,41.74
2022-12-20T18:20:15.593Z,41.80
2022-12-20T18:22:45.833Z,41.90
2022-12-20T18:25:18.681Z,41.90
2022-12-20T18:27:49.221Z,41.97
2022-12-20T18:30:19.812Z,41.94
2022-12-20T18:32:50.507Z,41.97
2022-12-20T18:35:21.137Z,41.92
2022-12-20T18:37:52.506Z,42.11
2022-12-20T18:40:26.342Z,42.09
2022-12-20T18:43:01.132Z,42.12
2022-12-20T18:45:38.270Z,42.15
2022-12-20T18:48:09.176Z,41.91
2022-12-20T18:50:39.501Z,42.20
2022-12-20T18:53:09.947Z,42.24
2022-12-20T18:55:42.731Z,42.22
2022-12-20T18:58:13.529Z,42.31
2022-12-20T19:00:45.497Z,42.03
2022-12-20T19:03:16.190Z,42.33
2022-12-20T19:05:46.643Z,42.36
2022-12-20T19:08:17.053Z,42.25
2022-12-20T19:10:49.514Z,42.31
2022-12-20T19:13:19.641Z,42.60
2022-12-20T19:15:49.670Z,42.74
2022-12-20T19:18:20.252Z,42.54
2022-12-20T19:20:50.740Z,42.36
2022-12-20T19:23:21.207Z,42.61
2022-12-20T19:25:53.671Z,42.76
2022-12-20T19:28:24.408Z,42.62
2022-12-20T19:30:56.099Z,42.82
2022-12-20T19:33:26.677Z,42.90
2022-12-20T19:35:56.986Z,42.94
2022-12-20T19:38:27.101Z,42.79
2022-12-20T19:40:58.682Z,42.73
2022-12-20T19:43:29.566Z,42.69
2022-12-20T19:45:59.929Z,42.75
2022-12-20T19:48:30.834Z,42.86
2022-12-20T19:51:05.391Z,42.98
2022-12-20T19:53:35.878Z,42.89
2022-12-20T19:56:09.806Z,42.96
2022-12-20T19:58:41.247Z,43.05
2022-12-20T20:01:12.480Z,42.82
2022-12-20T20:03:43.118Z,43.05
2022-12-20T20:06:13.657Z,42.87
2022-12-20T20:08:45.873Z,43.04
2022-12-20T20:11:19.314Z,42.95
2022-12-20T20:13:49.536Z,42.92
2022-12-20T20:16:22.545Z,43.13
2022-12-20T20:18:53.402Z,42.98
2022-12-20T20:21:26.329Z,43.17
2022-12-20T20:23:57.835Z,43.60
2022-12-20T20:26:32.476Z,43.41
2022-12-20T20:29:04.186Z,43.29
2022-12-20T20:31:34.743Z,42.97
2022-12-20T20:34:05.937Z,43.37
2022-12-20T20:36:35.861Z,43.36
2022-12-20T20:39:10.647Z,43.40
2022-12-20T20:41:43.431Z,43.23
2022-12-20T20:44:14.823Z,43.51
2022-12-20T20:46:45.146Z,43.45
2022-12-20T20:49:15.790Z,43.48
2022-12-20T20:51:45.973Z,43.38
2022-12-20T20:54:16.284Z,43.58
2022-12-20T20:56:48.709Z,43.35
2022-12-20T20:59:19.022Z,43.42
2022-12-20T21:01:49.459Z,43.35
2022-12-20T21:04:20.000Z,43.72
2022-12-20T21:06:49.661Z,43.55
2022-12-20T21:09:19.945Z,43.42
2022-12-20T21:11:52.563Z,43.82
2022-12-20T21:14:45.057Z,43.49
2022-12-20T21:17:13.005Z,43.67
2022-12-20T21:19:44.690Z,43.76
2022-12-20T21:22:14.653Z,43.73
2022-12-20T21:24:45.114Z,43.80
2022-12-20T21:27:17.919Z,43.49
2022-12-20T21:29:48.231Z,43.46
2022-12-20T21:32:18.634Z,43.69
2022-12-20T21:34:49.086Z,43.64
2022-12-20T21:37:19.574Z,43.40
2022-12-20T21:39:49.680Z,43.67
2022-12-20T21:42:22.264Z,43.54
2022-12-20T21:44:52.509Z,43.80
2022-12-20T21:47:23.046Z,43.78
2022-12-20T21:49:53.569Z,43.82
2022-12-20T21:52:24.111Z,43.98
2022-12-20T21:54:54.596Z,43.78
2022-12-20T21:57:27.090Z,43.98
2022-12-20T21:59:57.567Z,43.68
2022-12-20T22:02:28.307Z,43.73
2022-12-20T22:04:59.471Z,43.52
2022-12-20T22:07:29.328Z,43.99
2022-12-20T22:09:59.613Z,43.82
2022-12-20T22:12:31.729Z,43.75
2022-12-20T22:15:02.257Z,43.66
2022-12-20T22:17:35.887Z,43.75
2022-12-20T22:20:07.089Z,43.75
2022-12-20T22:22:37.163Z,43.71
2022-12-20T22:25:08.314Z,43.65
2022-12-20T22:27:40.596Z,43.70
2022-12-20T22:30:12.349Z,43.74
2022-12-20T22:32:42.779Z,43.90
2022-12-20T22:35:17.610Z,43.82
2022-12-20T22:37:52.242Z,43.71
2022-12-20T22:40:23.841Z,43.87
2022-12-20T22:42:56.229Z,43.79
2022-12-20T22:45:26.660Z,43.70
2022-12-20T22:47:57.105Z,43.65
2022-12-20T22:50:27.592Z,43.97
2022-12-20T22:52:57.961Z,44.10
2022-12-20T22:55:28.200Z,44.18
2022-12-20T22:58:00.393Z,43.87
2022-12-20T23:00:31.030Z,43.99
2022-12-20T23:03:01.347Z,44.12
2022-12-20T23:05:31.719Z,43.92
2022-12-20T23:08:01.965Z,43.87
2022-12-20T23:10:48.847Z,44.02
2022-12-20T23:13:37.739Z,43.75
2022-12-20T23:16:08.580Z,44.20
2022-12-20T23:18:38.775Z,43.98
2022-12-20T23:21:26.100Z,44.12
2022-12-20T23:23:56.792Z,43.63
2022-12-20T23:26:28.158Z,43.71
2022-12-20T23:29:00.037Z,43.95
2022-12-20T23:31:30.527Z,43.96
2022-12-20T23:34:01.965Z,43.91
2022-12-20T23:36:33.759Z,44.04
2022-12-20T23:39:03.977Z,43.96
2022-12-20T23:41:33.916Z,43.92
2022-12-20T23:44:07.803Z,43.71
2022-12-20T23:46:38.860Z,43.82
2022-12-20T23:49:09.261Z,43.85
2022-12-20T23:51:39.828Z,44.07
2022-12-20T23:54:10.795Z,43.57
2022-12-20T23:56:41.345Z,43.84
2022-12-20T23:59:13.736Z,43.72
